Time;durP1;ratioP1;P1;durP2;ratioP2;P2;SDS_P1;SDS_P2;PMS_P1;PMS_P2;Temp;Humidity;BMP_temperature;BMP_pressure;BME280_temperature;BME280_humidity;BME280_pressure;Samples;Min_cycle;Max_cycle;Signal;HPM_P1;HPM_P2
2022/11/07 00:00:40;;;;;;;13.95;8.68;;;;;;;7.89;86.41;97984.28;4976099;28;20089;-85
2022/11/07 00:03:06;;;;;;;15.40;9.98;;;;;;;7.88;86.60;97993.13;4976348;28;20042;-87
2022/11/07 00:05:32;;;;;;;14.68;9.60;;;;;;;7.92;86.83;97991.75;4976726;28;20537;-86
2022/11/07 00:07:57;;;;;;;15.38;9.60;;;;;;;7.98;86.44;97998.84;4976276;28;20031;-86
2022/11/07 00:10:23;;;;;;;14.40;8.75;;;;;;;8.02;86.45;97993.06;4976307;28;20085;-85
2022/11/07 00:12:48;;;;;;;13.05;9.23;;;;;;;8.07;85.92;97994.31;4974999;28;20031;-86
2022/11/07 00:15:14;;;;;;;13.55;9.38;;;;;;;8.08;85.43;97983.66;4975560;28;20066;-86
2022/11/07 00:17:39;;;;;;;12.82;8.82;;;;;;;8.09;85.14;97993.13;4975906;28;20044;-86
2022/11/07 00:20:06;;;;;;;13.13;8.65;;;;;;;8.12;85.28;97990.16;4976059;28;20042;-85
2022/11/07 00:22:31;;;;;;;13.48;8.95;;;;;;;8.22;85.65;97995.88;4976135;28;20042;-85
2022/11/07 00:24:57;;;;;;;13.65;9.23;;;;;;;8.23;84.46;97992.25;4975776;28;20038;-85
2022/11/07 00:27:22;;;;;;;13.88;9.75;;;;;;;8.27;84.48;98003.13;4975919;28;20117;-86
2022/11/07 00:29:51;;;;;;;13.20;9.02;;;;;;;8.26;84.65;98002.31;4975418;28;20051;-86
2022/11/07 00:32:16;;;;;;;13.90;9.45;;;;;;;8.30;85.09;98008.81;4975723;28;20031;-86
2022/11/07 00:34:43;;;;;;;13.35;8.77;;;;;;;8.23;84.80;98013.16;4974879;28;20085;-86
2022/11/07 00:37:08;;;;;;;14.57;9.20;;;;;;;8.28;85.62;98020.47;4975682;28;20460;-85
2022/11/07 00:39:34;;;;;;;13.25;8.30;;;;;;;8.32;85.10;98022.50;4990918;28;20430;-86
2022/11/07 00:41:59;;;;;;;12.05;8.50;;;;;;;8.29;83.51;98020.25;4979082;28;20120;-86
2022/11/07 00:44:25;;;;;;;14.98;9.77;;;;;;;8.37;84.21;98021.16;4975354;28;20038;-86
2022/11/07 00:46:50;;;;;;;10.40;7.93;;;;;;;8.40;82.98;98028.63;4974743;28;20035;-86
2022/11/07 00:49:16;;;;;;;12.30;8.27;;;;;;;8.37;83.30;98015.94;4974011;28;20066;-86
2022/11/07 00:51:41;;;;;;;10.15;7.50;;;;;;;8.44;83.60;98024.63;4975333;28;20122;-86
2022/11/07 00:54:07;;;;;;;9.73;7.25;;;;;;;8.49;81.92;98030.13;4973964;28;20041;-86
2022/11/07 00:56:32;;;;;;;10.20;7.07;;;;;;;8.50;82.22;98027.31;4975547;28;20045;-86
2022/11/07 00:58:59;;;;;;;13.45;8.68;;;;;;;8.53;81.98;98028.75;4975672;28;20133;-86
2022/11/07 01:01:29;;;;;;;11.57;7.75;;;;;;;8.51;80.82;98030.72;4973733;28;20498;-85
2022/11/07 01:06:43;;;;;;;10.93;7.32;;;;;;;8.58;80.82;98036.84;4974807;28;20490;-86
2022/11/07 01:09:18;;;;;;;9.90;7.07;;;;;;;8.58;80.67;98042.06;4974343;28;20039;-86
2022/11/07 01:11:45;;;;;;;9.15;7.20;;;;;;;8.59;81.41;98041.06;4974445;28;20431;-86
2022/11/07 01:14:15;;;;;;;10.93;7.45;;;;;;;8.60;81.33;98037.44;4973978;28;20030;-85
2022/11/07 01:16:40;;;;;;;9.93;7.05;;;;;;;8.52;80.97;98040.22;4974214;28;20038;-85
2022/11/07 01:19:07;;;;;;;10.27;7.25;;;;;;;8.53;81.44;98034.78;4974343;28;20042;-85
2022/11/07 01:21:36;;;;;;;11.10;7.45;;;;;;;8.59;81.00;98041.06;4973073;28;20116;-86
2022/11/07 01:24:02;;;;;;;12.35;7.65;;;;;;;8.57;80.57;98046.47;4975100;28;20153;-85
2022/11/07 01:26:28;;;;;;;9.35;6.72;;;;;;;8.56;81.47;98042.25;4974270;28;20038;-86
2022/11/07 01:28:54;;;;;;;10.98;7.45;;;;;;;8.54;81.61;98041.63;4975241;28;20035;-85
2022/11/07 01:31:19;;;;;;;10.55;7.85;;;;;;;8.61;82.24;98053.94;4973967;28;20090;-86
2022/11/07 01:33:45;;;;;;;11.15;7.68;;;;;;;8.61;81.98;98046.91;4973570;28;20058;-85
2022/11/07 01:36:15;;;;;;;10.48;7.65;;;;;;;8.57;81.32;98045.66;4975248;28;20043;-85
2022/11/07 01:38:47;;;;;;;10.10;8.03;;;;;;;8.70;81.13;98052.84;4984029;28;20102;-85
2022/11/07 01:41:20;;;;;;;10.10;6.63;;;;;;;8.66;81.05;98046.34;4993633;28;20031;-86
2022/11/07 01:44:05;;;;;;;9.82;7.05;;;;;;;8.76;80.99;98054.69;4973503;28;20039;-85
2022/11/07 01:46:40;;;;;;;9.05;6.85;;;;;;;8.80;82.02;98056.72;4989724;28;20122;-86
2022/11/07 01:49:31;;;;;;;9.52;6.82;;;;;;;8.81;81.54;98058.34;4973943;28;20692;-85
2022/11/07 01:52:14;;;;;;;9.40;6.93;;;;;;;8.85;80.58;98053.53;4972756;28;20030;-85
2022/11/07 01:54:50;;;;;;;10.90;6.50;;;;;;;8.87;80.53;98050.72;4987795;28;20118;-84
2022/11/07 01:57:25;;;;;;;9.93;6.70;;;;;;;8.87;80.31;98061.19;4972833;28;20039;-86
2022/11/07 01:59:55;;;;;;;9.00;6.80;;;;;;;8.88;80.93;98057.59;4974090;28;20561;-86
2022/11/07 02:02:27;;;;;;;8.90;6.57;;;;;;;8.89;80.09;98069.69;4973295;28;20043;-85
2022/11/07 02:04:58;;;;;;;8.82;6.28;;;;;;;8.85;79.51;98059.59;4973423;28;20111;-86
2022/11/07 02:07:25;;;;;;;7.85;5.97;;;;;;;8.88;78.83;98062.84;4973412;28;20498;-86
2022/11/07 02:09:52;;;;;;;8.15;5.95;;;;;;;8.95;78.56;98071.53;4973397;28;20062;-86
2022/11/07 02:12:21;;;;;;;7.28;5.63;;;;;;;8.91;77.91;98059.81;4973138;28;20031;-85
2022/11/07 02:14:46;;;;;;;7.80;5.68;;;;;;;8.92;78.47;98058.81;4988627;28;20109;-85
2022/11/07 02:17:13;;;;;;;7.07;5.65;;;;;;;9.00;78.02;98069.16;4968933;28;20554;-85
2022/11/07 02:19:49;;;;;;;8.23;5.80;;;;;;;9.05;80.04;98064.16;4953483;28;20510;-86
2022/11/07 02:22:59;;;;;;;7.40;5.20;;;;;;;9.09;78.59;98066.19;4965429;28;20073;-86
2022/11/07 02:25:25;;;;;;;6.17;5.00;;;;;;;9.10;78.91;98061.78;4969714;28;20131;-85
2022/11/07 02:27:58;;;;;;;6.85;5.53;;;;;;;9.15;80.07;98059.41;4983403;28;20042;-85
2022/11/07 02:30:32;;;;;;;7.10;4.88;;;;;;;9.16;80.07;98062.81;4972430;28;20054;-85
2022/11/07 02:33:02;;;;;;;7.30;5.47;;;;;;;9.23;79.71;98072.31;4972552;28;20105;-85
2022/11/07 02:35:30;;;;;;;6.22;5.00;;;;;;;9.31;81.04;98069.56;4972435;28;20035;-85
2022/11/07 02:37:56;;;;;;;7.43;5.03;;;;;;;9.30;80.21;98041.78;4972923;28;20038;-86
2022/11/07 02:40:22;;;;;;;6.72;4.80;;;;;;;9.39;81.56;98053.72;4972891;28;20101;-86
2022/11/07 02:42:48;;;;;;;7.50;5.20;;;;;;;9.44;82.29;98058.38;4973113;28;20042;-86
2022/11/07 02:45:23;;;;;;;9.63;4.32;;;;;;;9.46;81.67;98058.97;4973260;28;20039;-85
2022/11/07 02:47:49;;;;;;;7.25;4.45;;;;;;;9.43;81.14;98048.09;4970952;28;20035;-85
2022/11/07 02:50:15;;;;;;;6.28;4.57;;;;;;;9.48;81.21;98053.56;4972559;28;20049;-86
2022/11/07 02:52:42;;;;;;;7.60;5.45;;;;;;;9.45;79.25;98059.97;4969323;28;20023;-85
2022/11/07 02:55:11;;;;;;;7.60;5.57;;;;;;;9.45;79.18;98061.78;4969821;28;20035;-85
2022/11/07 02:57:36;;;;;;;7.28;5.15;;;;;;;9.41;79.55;98056.13;4969240;28;20050;-85
2022/11/07 03:00:04;;;;;;;9.07;5.15;;;;;;;9.45;80.36;98054.75;4969618;28;20038;-84
2022/11/07 03:02:30;;;;;;;7.72;5.47;;;;;;;9.47;80.01;98051.94;4983259;28;20122;-84
2022/11/07 03:04:58;;;;;;;6.68;5.20;;;;;;;9.44;78.95;98049.72;4970872;28;20038;-84
2022/11/07 03:07:24;;;;;;;7.18;5.15;;;;;;;9.36;79.42;98041.03;4970039;28;20058;-84
2022/11/07 03:09:50;;;;;;;6.15;5.10;;;;;;;9.39;79.94;98053.72;4970281;28;20077;-84
2022/11/07 03:12:16;;;;;;;8.20;5.50;;;;;;;9.36;79.62;98045.44;4970307;28;20062;-84
2022/11/07 03:14:41;;;;;;;7.10;5.45;;;;;;;9.34;78.73;98052.66;4966463;28;20035;-84
2022/11/07 03:17:07;;;;;;;6.07;4.78;;;;;;;9.27;79.51;98050.00;4970088;28;20113;-85
2022/11/07 03:19:33;;;;;;;9.52;5.00;;;;;;;9.23;79.32;98059.25;4970674;28;20062;-84
2022/11/07 03:21:58;;;;;;;7.47;4.78;;;;;;;9.21;79.17;98048.16;4969376;28;20490;-84
2022/11/07 03:24:24;;;;;;;8.00;4.97;;;;;;;9.19;78.83;98050.19;4970056;28;20399;-85
2022/11/07 03:26:49;;;;;;;7.28;4.75;;;;;;;9.08;79.13;98045.47;4969614;28;20038;-85
2022/11/07 03:29:15;;;;;;;6.82;5.07;;;;;;;9.02;79.42;98048.84;4969656;28;20104;-85
2022/11/07 03:31:40;;;;;;;5.97;4.72;;;;;;;8.97;79.18;98051.22;4969232;28;20038;-85
2022/11/07 03:34:06;;;;;;;5.97;5.05;;;;;;;8.91;79.76;98036.28;4970099;28;20023;-85
2022/11/07 03:36:32;;;;;;;7.88;4.60;;;;;;;8.96;80.09;98050.41;4967603;28;20122;-85
2022/11/07 03:38:58;;;;;;;4.43;3.97;;;;;;;8.96;79.92;98050.41;4969977;28;20031;-85
2022/11/07 03:41:24;;;;;;;4.97;4.05;;;;;;;8.91;79.79;98038.91;4970042;28;20133;-85
2022/11/07 03:43:49;;;;;;;5.68;4.35;;;;;;;8.95;80.20;98050.63;4963232;28;20046;-85
2022/11/07 03:46:15;;;;;;;5.10;3.95;;;;;;;8.93;79.94;98039.50;4969850;28;20133;-84
2022/11/07 03:48:42;;;;;;;5.50;4.25;;;;;;;8.99;80.70;98052.63;4970270;28;20038;-85
2022/11/07 03:51:09;;;;;;;4.97;3.50;;;;;;;8.98;80.66;98052.84;4970208;28;20042;-85
2022/11/07 03:53:35;;;;;;;6.25;4.05;;;;;;;9.03;80.87;98066.16;4967225;28;20075;-86
2022/11/07 03:56:09;;;;;;;6.22;3.72;;;;;;;9.04;80.11;98073.00;4970203;28;20039;-84
2022/11/07 03:58:37;;;;;;;4.65;3.83;;;;;;;9.06;80.24;98066.59;4969349;28;20034;-86
2022/11/07 04:01:04;;;;;;;4.78;3.72;;;;;;;9.14;80.45;98076.09;4969601;28;20069;-85
2022/11/07 04:03:30;;;;;;;4.45;3.38;;;;;;;9.16;80.08;98071.47;4970395;28;20541;-86
2022/11/07 04:05:56;;;;;;;3.47;3.13;;;;;;;9.19;80.03;98078.97;4972800;28;20686;-85
2022/11/07 04:08:22;;;;;;;3.88;3.15;;;;;;;9.19;80.66;98075.53;4971918;28;20042;-85
2022/11/07 04:10:48;;;;;;;3.75;3.03;;;;;;;9.23;80.41;98077.56;4973131;28;20882;-85
2022/11/07 04:17:17;;;;;;;4.28;3.72;;;;;;;9.30;80.87;98083.66;4987830;28;20027;-85
2022/11/07 04:18:55;;;;;;;3.78;3.03;;;;;;;9.28;80.04;98085.66;4970401;28;20031;-85
2022/11/07 04:21:21;;;;;;;4.05;3.40;;;;;;;9.33;80.64;98087.69;4972929;28;20035;-85
2022/11/07 04:23:47;;;;;;;4.03;3.28;;;;;;;9.33;80.66;98098.97;4971606;28;20038;-85
2022/11/07 04:28:57;;;;;;;4.70;3.47;;;;;;;9.32;80.38;98091.31;4972216;28;20085;-85
2022/11/07 04:31:22;;;;;;;5.32;3.20;;;;;;;9.33;80.74;98096.34;4971844;28;20051;-85
2022/11/07 04:33:48;;;;;;;4.10;3.30;;;;;;;9.38;80.91;98101.03;4972222;28;20042;-84
2022/11/07 04:36:13;;;;;;;4.85;3.22;;;;;;;9.38;80.69;98088.75;4972481;28;20498;-85
2022/11/07 04:38:39;;;;;;;3.42;2.90;;;;;;;9.38;80.65;98086.13;4972379;28;20047;-84
2022/11/07 04:41:05;;;;;;;3.72;3.10;;;;;;;9.48;81.11;98100.69;4972070;28;20129;-84
2022/11/07 04:43:30;;;;;;;5.35;3.28;;;;;;;9.50;81.64;98094.25;4971614;28;20046;-84
2022/11/07 04:45:56;;;;;;;3.78;2.88;;;;;;;9.51;80.49;98106.34;4971840;28;20101;-84
2022/11/07 04:48:21;;;;;;;5.03;2.80;;;;;;;9.46;80.64;98108.72;4971907;28;20531;-84
2022/11/07 04:50:48;;;;;;;3.88;3.13;;;;;;;9.37;81.25;98100.22;4972579;28;20105;-85
2022/11/07 04:53:16;;;;;;;3.60;2.95;;;;;;;9.36;81.54;98098.59;4968403;28;20030;-84
2022/11/07 04:55:42;;;;;;;6.00;3.25;;;;;;;9.29;81.80;98102.97;4969084;28;20085;-84
2022/11/07 04:58:10;;;;;;;4.03;3.15;;;;;;;9.15;81.63;98106.50;4971993;28;20046;-85
2022/11/07 05:00:36;;;;;;;3.05;2.75;;;;;;;9.08;82.23;98110.88;4971506;28;20067;-84
2022/11/07 05:03:02;;;;;;;4.40;2.90;;;;;;;9.04;82.95;98120.09;4971521;28;20034;-85
2022/11/07 05:05:28;;;;;;;5.70;3.25;;;;;;;9.03;83.06;98124.50;4971308;28;20155;-84
2022/11/07 05:07:53;;;;;;;3.45;2.65;;;;;;;9.01;83.22;98126.53;4971664;28;20039;-84
2022/11/07 05:10:26;;;;;;;3.55;2.88;;;;;;;9.04;83.88;98123.50;4971653;28;20031;-84
2022/11/07 05:12:53;;;;;;;4.63;2.90;;;;;;;9.04;83.95;98120.91;4971570;28;20553;-84
2022/11/07 05:15:19;;;;;;;2.95;2.63;;;;;;;9.05;83.82;98126.94;4970343;28;20038;-85
2022/11/07 05:17:45;;;;;;;5.53;3.25;;;;;;;9.04;83.87;98118.28;4969208;28;20109;-84
2022/11/07 05:20:36;;;;;;;3.53;2.97;;;;;;;9.01;84.24;98131.75;4985606;28;20034;-85
2022/11/07 05:23:13;;;;;;;4.55;2.85;;;;;;;9.07;84.42;98125.75;4971132;28;20035;-84
2022/11/07 05:25:43;;;;;;;5.70;2.90;;;;;;;9.10;84.53;98119.34;4970750;28;20113;-84
2022/11/07 05:28:13;;;;;;;4.40;2.70;;;;;;;9.10;84.24;98125.38;4970906;28;20066;-85
2022/11/07 05:30:41;;;;;;;5.55;3.28;;;;;;;9.18;84.23;98131.50;4970304;28;20125;-85
2022/11/07 05:33:09;;;;;;;4.35;2.75;;;;;;;9.23;83.98;98131.72;4986542;28;20034;-85
2022/11/07 05:35:35;;;;;;;3.80;2.80;;;;;;;9.22;83.35;98133.53;4970227;28;20035;-85
2022/11/07 05:38:01;;;;;;;3.53;3.08;;;;;;;9.27;83.48;98133.75;4970563;28;20533;-84
2022/11/07 05:40:26;;;;;;;3.08;2.78;;;;;;;9.21;83.12;98121.44;4985546;28;20027;-84
2022/11/07 05:42:57;;;;;;;4.25;3.00;;;;;;;9.28;83.03;98138.00;4969538;28;20098;-85
2022/11/07 05:45:22;;;;;;;4.85;2.90;;;;;;;9.23;82.99;98135.13;4970804;28;20046;-84
2022/11/07 05:47:48;;;;;;;5.32;2.85;;;;;;;9.24;83.00;98136.78;4971029;28;20045;-85
2022/11/07 05:50:13;;;;;;;4.82;3.28;;;;;;;9.29;83.11;98144.84;4970870;28;20077;-85
2022/11/07 05:52:39;;;;;;;4.45;2.90;;;;;;;9.34;83.47;98137.22;4967782;28;20415;-84
2022/11/07 05:55:04;;;;;;;3.83;2.75;;;;;;;9.34;83.36;98134.63;4970595;28;20050;-85
2022/11/07 05:57:30;;;;;;;4.15;2.97;;;;;;;9.36;83.49;98135.25;4970351;28;20050;-84
2022/11/07 05:59:55;;;;;;;4.65;2.95;;;;;;;9.38;83.49;98143.72;4970555;28;20038;-85
2022/11/07 06:02:21;;;;;;;4.75;3.20;;;;;;;9.41;83.59;98137.28;4969334;28;20042;-84
2022/11/07 06:04:46;;;;;;;3.70;3.13;;;;;;;9.42;83.61;98145.97;4975518;28;20041;-85
2022/11/07 06:07:12;;;;;;;3.00;2.70;;;;;;;9.44;83.34;98152.63;4970314;28;20122;-84
2022/11/07 06:09:37;;;;;;;5.40;2.80;;;;;;;9.43;83.19;98150.19;4985234;28;20049;-85
2022/11/07 06:12:03;;;;;;;3.58;3.05;;;;;;;9.47;84.11;98148.78;4970526;28;20061;-84
2022/11/07 06:14:29;;;;;;;5.10;2.85;;;;;;;9.46;83.58;98155.03;4951860;28;20066;-84
2022/11/07 06:16:54;;;;;;;3.90;3.03;;;;;;;9.48;84.02;98158.28;4970106;28;20070;-84
2022/11/07 06:19:20;;;;;;;3.92;2.85;;;;;;;9.48;84.26;98159.09;4969452;28;20062;-84
2022/11/07 06:21:45;;;;;;;4.05;2.95;;;;;;;9.47;84.83;98164.50;4969657;28;20046;-84
2022/11/07 06:24:11;;;;;;;3.72;2.60;;;;;;;9.51;84.39;98169.16;4965732;28;20035;-85
2022/11/07 06:26:36;;;;;;;3.47;3.10;;;;;;;9.54;84.62;98157.53;4969773;28;20156;-84
2022/11/07 06:29:02;;;;;;;4.65;3.08;;;;;;;9.59;84.81;98157.72;4969413;28;20125;-85
2022/11/07 06:31:28;;;;;;;4.80;3.35;;;;;;;9.57;84.20;98160.56;4968657;28;20034;-84
2022/11/07 06:33:53;;;;;;;3.80;2.97;;;;;;;9.53;83.99;98156.69;4969177;28;20494;-84
2022/11/07 06:36:18;;;;;;;5.00;3.10;;;;;;;9.50;83.82;98172.00;4968852;28;20078;-84
2022/11/07 06:38:44;;;;;;;4.25;3.40;;;;;;;9.51;84.05;98168.38;4969558;28;20035;-84
2022/11/07 06:41:16;;;;;;;3.75;3.17;;;;;;;9.44;84.45;98167.50;4969332;28;20035;-85
2022/11/07 06:43:41;;;;;;;3.85;3.08;;;;;;;9.39;84.23;98155.78;4969308;28;20046;-84
2022/11/07 06:46:11;;;;;;;5.35;3.70;;;;;;;9.33;84.24;98168.84;4959879;28;20039;-84
2022/11/07 06:48:37;;;;;;;4.30;3.30;;;;;;;9.27;85.00;98175.63;4967017;28;20035;-84
2022/11/07 06:51:05;;;;;;;4.20;3.25;;;;;;;9.23;85.23;98166.53;4968682;28;20046;-84
2022/11/07 06:53:31;;;;;;;4.28;3.40;;;;;;;9.23;85.01;98168.34;4965528;28;20573;-84
2022/11/07 06:56:04;;;;;;;14.32;8.15;;;;;;;9.16;85.26;98175.34;4968560;28;20122;-85
2022/11/07 06:58:30;;;;;;;7.00;4.25;;;;;;;9.13;85.67;98173.91;4969183;28;20209;-84
2022/11/07 07:01:05;;;;;;;4.07;3.67;;;;;;;9.12;85.44;98195.84;4969058;28;20039;-83
2022/11/07 07:03:33;;;;;;;8.20;5.75;;;;;;;9.07;85.51;98192.97;4968539;28;20047;-84
2022/11/07 07:06:05;;;;;;;5.93;3.92;;;;;;;9.11;85.42;98200.25;4969001;28;20603;-84
2022/11/07 07:08:32;;;;;;;5.07;3.80;;;;;;;9.14;85.80;98199.09;4968529;28;20131;-84
2022/11/07 07:11:04;;;;;;;4.45;3.72;;;;;;;9.17;86.03;98203.13;4968603;28;20058;-84
2022/11/07 07:13:30;;;;;;;5.72;3.40;;;;;;;9.17;85.73;98193.47;4967288;28;20031;-84
2022/11/07 07:15:57;;;;;;;5.90;3.40;;;;;;;9.18;85.33;98200.34;4967445;28;20047;-84
2022/11/07 07:18:24;;;;;;;4.25;3.47;;;;;;;9.27;85.29;98201.81;4968048;28;20450;-83
2022/11/07 07:20:51;;;;;;;5.20;3.95;;;;;;;9.46;85.46;98196.91;4968876;28;20148;-84
2022/11/07 07:23:18;;;;;;;5.25;3.78;;;;;;;9.57;84.12;98197.22;4965985;28;20031;-84
2022/11/07 07:25:46;;;;;;;6.38;3.97;;;;;;;9.67;83.05;98209.97;4953194;28;20034;-84
2022/11/07 07:28:12;;;;;;;7.65;5.70;;;;;;;9.66;82.68;98208.38;4967978;28;20050;-85
2022/11/07 07:30:38;;;;;;;9.88;5.78;;;;;;;9.74;82.58;98210.84;4966874;28;20138;-85
2022/11/07 07:33:04;;;;;;;27.23;13.13;;;;;;;9.77;82.57;98204.38;4967614;28;20043;-83
2022/11/07 07:35:30;;;;;;;23.63;11.32;;;;;;;9.97;82.30;98199.28;4967867;28;20117;-84
2022/11/07 07:37:56;;;;;;;11.88;7.15;;;;;;;10.11;82.10;98200.97;4981129;28;20043;-83
2022/11/07 07:40:22;;;;;;;14.05;6.60;;;;;;;10.17;80.64;98205.44;4967178;28;20031;-82
2022/11/07 07:42:47;;;;;;;10.68;5.57;;;;;;;10.23;80.79;98209.94;4967189;28;20518;-82
2022/11/07 07:45:15;;;;;;;11.88;6.30;;;;;;;10.23;80.24;98211.72;4969675;28;20046;-83
2022/11/07 07:47:41;;;;;;;7.47;4.20;;;;;;;10.25;80.15;98207.91;4965878;28;20039;-84
2022/11/07 07:50:10;;;;;;;7.97;4.97;;;;;;;10.42;79.94;98211.03;4947382;28;20122;-82
2022/11/07 07:52:36;;;;;;;7.28;5.18;;;;;;;10.45;79.63;98203.59;4963166;28;20023;-84
2022/11/07 07:55:06;;;;;;;8.43;4.95;;;;;;;10.60;79.34;98207.88;4966298;28;20554;-83
2022/11/07 07:57:41;;;;;;;7.65;4.80;;;;;;;10.63;79.26;98210.91;4968994;28;20097;-84
2022/11/07 08:00:08;;;;;;;7.70;4.88;;;;;;;10.54;78.81;98198.97;4964477;28;20034;-84
2022/11/07 08:02:34;;;;;;;6.75;4.90;;;;;;;10.73;78.70;98215.78;4966921;28;20126;-84
2022/11/07 08:05:02;;;;;;;7.07;4.05;;;;;;;10.80;77.90;98216.63;4968871;28;20137;-83
2022/11/07 08:07:28;;;;;;;5.55;4.10;;;;;;;10.90;77.74;98222.28;4967224;28;20072;-82
2022/11/07 08:09:53;;;;;;;7.97;4.53;;;;;;;11.02;77.42;98219.06;4966756;28;20042;-83
2022/11/07 08:12:19;;;;;;;6.30;4.47;;;;;;;11.02;76.37;98221.69;4967741;28;20054;-83
2022/11/07 08:14:44;;;;;;;7.32;4.55;;;;;;;10.96;76.04;98218.88;4967887;28;20038;-83
2022/11/07 08:17:10;;;;;;;5.90;4.10;;;;;;;11.06;76.35;98220.31;4968559;28;20043;-83
2022/11/07 08:19:35;;;;;;;8.73;5.18;;;;;;;11.08;75.83;98220.91;4967451;28;20430;-83
2022/11/07 08:22:01;;;;;;;9.45;4.80;;;;;;;11.10;75.85;98221.53;4965926;28;20039;-84
2022/11/07 08:24:26;;;;;;;6.43;4.65;;;;;;;11.22;75.56;98214.69;4968012;28;20034;-84
2022/11/07 08:26:52;;;;;;;6.03;4.65;;;;;;;11.36;75.79;98211.03;4968362;28;20087;-86
2022/11/07 08:29:18;;;;;;;6.95;4.22;;;;;;;11.49;74.80;98216.28;4967871;28;20039;-85
2022/11/07 08:31:43;;;;;;;6.65;4.25;;;;;;;11.64;74.64;98218.72;4966597;28;20053;-85
2022/11/07 08:34:09;;;;;;;8.32;4.68;;;;;;;11.77;74.50;98228.41;4968166;28;20383;-85
2022/11/07 08:36:34;;;;;;;7.95;4.75;;;;;;;11.85;74.39;98224.78;4968225;28;20030;-86
2022/11/07 08:39:00;;;;;;;9.43;5.20;;;;;;;11.92;74.62;98236.09;4965696;28;20047;-84
2022/11/07 08:41:25;;;;;;;5.60;4.10;;;;;;;11.76;73.91;98229.44;4967140;28;20085;-85
2022/11/07 08:43:51;;;;;;;6.47;3.97;;;;;;;11.79;74.28;98226.38;4966480;28;20050;-85
2022/11/07 08:46:16;;;;;;;6.00;4.13;;;;;;;11.94;74.64;98226.22;4966678;28;20530;-85
2022/11/07 08:48:44;;;;;;;5.15;3.47;;;;;;;12.09;72.85;98216.25;4965666;28;20038;-84
2022/11/07 08:51:10;;;;;;;4.82;3.47;;;;;;;11.98;72.84;98222.94;4967776;28;20483;-84
2022/11/07 08:53:35;;;;;;;7.15;3.78;;;;;;;11.95;73.19;98214.69;4965096;28;20051;-84
2022/11/07 08:56:09;;;;;;;5.47;3.72;;;;;;;12.02;73.71;98218.91;4966229;28;20077;-84
2022/11/07 08:58:36;;;;;;;6.15;3.83;;;;;;;12.00;73.58;98213.06;4982153;28;20042;-85
2022/11/07 09:01:09;;;;;;;5.78;4.13;;;;;;;12.10;73.44;98222.31;4966680;28;20553;-85
2022/11/07 09:03:37;;;;;;;5.45;3.90;;;;;;;12.06;73.84;98221.94;4967195;28;20114;-84
2022/11/07 09:06:03;;;;;;;5.93;3.90;;;;;;;12.01;73.92;98219.13;4966993;28;20041;-84
2022/11/07 09:08:31;;;;;;;5.90;4.22;;;;;;;12.05;73.35;98215.88;4967670;28;20041;-84
2022/11/07 09:11:02;;;;;;;5.32;3.95;;;;;;;11.97;73.97;98217.91;4965656;28;20057;-84
2022/11/07 09:13:29;;;;;;;5.72;3.70;;;;;;;11.97;74.56;98213.44;4980750;28;20482;-84
2022/11/07 09:15:58;;;;;;;6.32;3.55;;;;;;;12.10;74.73;98212.59;4966614;28;20030;-84
2022/11/07 09:18:25;;;;;;;5.00;3.85;;;;;;;12.21;74.17;98227.75;4967476;28;20347;-84
2022/11/07 09:20:50;;;;;;;4.43;3.90;;;;;;;12.28;73.75;98225.09;4966680;28;20101;-85
2022/11/07 09:23:16;;;;;;;4.50;3.38;;;;;;;12.46;73.45;98222.59;4967552;28;20039;-85
2022/11/07 09:25:42;;;;;;;9.23;4.40;;;;;;;12.47;73.44;98223.41;4967652;28;20062;-85
2022/11/07 09:28:08;;;;;;;4.18;3.60;;;;;;;12.62;72.96;98221.34;4982479;28;20399;-85
2022/11/07 09:30:33;;;;;;;5.10;4.20;;;;;;;12.75;73.44;98228.38;4967832;28;20059;-85
2022/11/07 09:32:59;;;;;;;6.82;3.88;;;;;;;12.89;71.73;98221.19;4967032;28;20027;-85
2022/11/07 09:35:26;;;;;;;4.35;3.35;;;;;;;13.00;71.32;98212.63;4966835;28;20117;-84
2022/11/07 09:37:51;;;;;;;4.75;3.80;;;;;;;13.08;72.07;98209.75;4966075;28;20384;-84
2022/11/07 09:40:39;;;;;;;5.15;3.60;;;;;;;13.22;71.98;98221.03;4966770;28;20045;-85
2022/11/07 09:43:38;;;;;;;5.70;4.10;;;;;;;13.31;69.93;98212.69;4965707;28;20026;-85
2022/11/07 09:46:35;;;;;;;6.75;3.60;;;;;;;13.28;71.02;98217.53;4964827;28;20062;-85
2022/11/07 09:49:29;;;;;;;4.85;3.38;;;;;;;13.46;71.43;98217.63;4966225;28;20035;-82
2022/11/07 09:52:37;;;;;;;3.65;3.05;;;;;;;13.62;70.21;98221.53;4965077;28;20041;-83
2022/11/07 09:55:19;;;;;;;3.83;3.00;;;;;;;13.93;68.63;98231.19;4967814;28;20031;-82
2022/11/07 09:57:47;;;;;;;4.00;2.85;;;;;;;14.15;67.35;98227.13;4966438;28;20372;-82
2022/11/07 10:00:21;;;;;;;2.65;2.33;;;;;;;14.13;67.85;98237.06;4965305;28;20115;-82
2022/11/07 10:02:56;;;;;;;3.42;2.20;;;;;;;14.40;69.04;98244.72;4965708;28;20035;-82
2022/11/07 10:06:10;;;;;;;3.30;2.10;;;;;;;14.60;68.49;98237.41;4965552;28;20683;-82
2022/11/07 10:09:02;;;;;;;3.15;1.85;;;;;;;14.49;67.06;98246.06;4967354;28;20371;-83
2022/11/07 10:12:09;;;;;;;4.50;2.30;;;;;;;14.64;67.69;98229.84;4981691;28;20471;-83
2022/11/07 10:15:00;;;;;;;4.40;2.30;;;;;;;14.56;66.25;98241.50;4972995;28;20042;-83
2022/11/07 10:17:34;;;;;;;4.55;1.92;;;;;;;14.61;67.61;98238.19;4966339;28;20518;-83
2022/11/07 10:20:40;;;;;;;3.90;1.90;;;;;;;14.71;68.09;98241.13;4965891;28;20779;-83
2022/11/07 10:23:25;;;;;;;4.20;2.25;;;;;;;14.71;67.53;98231.38;4964347;28;20050;-83
2022/11/07 10:26:11;;;;;;;3.97;1.90;;;;;;;14.76;66.68;98233.34;4965437;28;20058;-83
2022/11/07 10:28:52;;;;;;;5.20;2.10;;;;;;;14.51;66.17;98244.00;4964549;28;20038;-83
2022/11/07 10:31:18;;;;;;;4.03;1.95;;;;;;;14.36;67.92;98238.25;4966642;28;20046;-83
2022/11/07 10:33:52;;;;;;;6.18;1.80;;;;;;;14.26;67.44;98237.97;4981167;28;20035;-83
2022/11/07 10:36:30;;;;;;;4.70;1.85;;;;;;;14.34;68.77;98235.03;4965272;28;20105;-83
2022/11/07 10:38:56;;;;;;;3.78;1.88;;;;;;;14.33;68.45;98223.66;4968308;28;20050;-83
2022/11/07 10:41:29;;;;;;;2.72;1.90;;;;;;;14.37;67.97;98221.41;4968393;28;20049;-83
2022/11/07 10:44:09;;;;;;;2.25;1.75;;;;;;;14.43;68.73;98217.88;4966448;28;20046;-83
2022/11/07 10:46:45;;;;;;;3.35;1.80;;;;;;;14.39;68.29;98219.34;4966360;28;20034;-83
2022/11/07 10:49:17;;;;;;;4.03;1.75;;;;;;;14.28;68.03;98228.00;4967917;28;20177;-83
2022/11/07 10:51:43;;;;;;;2.58;1.70;;;;;;;14.08;67.96;98213.19;4967263;28;20499;-84
2022/11/07 10:54:24;;;;;;;2.30;1.80;;;;;;;14.08;68.62;98217.66;4964389;28;20041;-83
2022/11/07 10:57:09;;;;;;;;;;;;;;;14.05;68.18;98224.19;4964091;28;20089;-83
2022/11/07 10:59:40;;;;;;;4.43;2.05;;;;;;;14.17;67.80;98214.50;4966022;28;19914;-83
2022/11/07 11:02:28;;;;;;;1.70;1.60;;;;;;;14.34;68.13;98216.56;4967864;28;20097;-82
2022/11/07 11:04:59;;;;;;;3.03;1.75;;;;;;;14.51;67.40;98212.31;4968272;28;20039;-83
2022/11/07 11:07:33;;;;;;;;;;;;;;;14.54;67.01;98200.53;4980917;28;20101;-83
2022/11/07 11:09:59;;;;;;;2.40;1.58;;;;;;;14.58;67.52;98210.44;4962940;28;19924;-83
2022/11/07 11:12:29;;;;;;;3.35;1.75;;;;;;;14.49;68.05;98211.75;4965186;28;20121;-83
2022/11/07 11:15:12;;;;;;;3.22;1.65;;;;;;;14.44;68.55;98214.22;4963180;28;20085;-83
2022/11/07 11:17:38;;;;;;;2.60;1.50;;;;;;;14.52;67.61;98197.31;4964299;28;20532;-83
2022/11/07 11:20:08;;;;;;;3.03;1.52;;;;;;;14.57;68.03;98200.06;4969606;28;20122;-83
2022/11/07 11:22:41;;;;;;;5.10;2.78;;;;;;;14.72;67.94;98190.75;4970726;28;20030;-82
2022/11/07 11:25:10;;;;;;;5.88;1.67;;;;;;;14.96;67.43;98186.34;4970949;28;20035;-83
2022/11/07 11:27:38;;;;;;;3.30;1.77;;;;;;;15.16;64.81;98186.03;4968827;28;20097;-83
2022/11/07 11:30:10;;;;;;;2.72;1.33;;;;;;;15.21;62.73;98180.88;4970984;28;20129;-83
2022/11/07 11:32:39;;;;;;;1.58;1.20;;;;;;;15.40;64.58;98175.50;4969190;28;20039;-83
2022/11/07 11:35:21;;;;;;;3.75;1.30;;;;;;;15.46;63.98;98170.13;4982760;28;21442;-83
2022/11/07 11:37:57;;;;;;;2.25;1.02;;;;;;;15.27;60.71;98158.84;4970217;28;20031;-83
2022/11/07 11:40:24;;;;;;;4.45;1.10;;;;;;;15.16;60.17;98167.53;4968077;28;20043;-83
2022/11/07 11:42:59;;;;;;;3.45;1.20;;;;;;;15.09;60.48;98172.13;4968235;28;20387;-82
2022/11/07 11:46:13;;;;;;;3.67;1.30;;;;;;;15.19;61.12;98169.75;4980928;28;20054;-84
2022/11/07 11:48:41;;;;;;;3.50;1.10;;;;;;;15.33;60.45;98156.31;4968577;28;20039;-83
2022/11/07 11:51:36;;;;;;;3.47;1.25;;;;;;;15.37;61.92;98154.84;4963485;28;20089;-83
2022/11/07 11:54:07;;;;;;;2.45;1.20;;;;;;;15.34;61.99;98161.38;4960112;28;20090;-83
2022/11/07 11:57:03;;;;;;;3.75;1.13;;;;;;;15.26;61.34;98159.88;4965171;28;20517;-83
2022/11/07 11:59:55;;;;;;;4.13;1.33;;;;;;;15.20;62.06;98144.94;4967223;28;20666;-83